sensor_id;sensor_type;location;lat;lon;timestamp;pressure;altitude;pressure_sealevel;temperature;humidity
18500;BME280;9379;52.134;11.576;2022-10-31T00:00:31;101244.88;;;17.74;85.87
18500;BME280;9379;52.134;11.576;2022-10-31T00:02:58;101259.03;;;18.08;83.88
18500;BME280;9379;52.134;11.576;2022-10-31T00:05:26;101251.78;;;18.01;84.25
18500;BME280;9379;52.134;11.576;2022-10-31T00:07:53;101253.47;;;18.18;83.43
18500;BME280;9379;52.134;11.576;2022-10-31T00:10:20;101250.78;;;18.18;83.55
18500;BME280;9379;52.134;11.576;2022-10-31T00:12:46;101252.63;;;18.18;82.67
18500;BME280;9379;52.134;11.576;2022-10-31T00:15:13;101259.34;;;18.14;83.30
18500;BME280;9379;52.134;11.576;2022-10-31T00:17:40;101248.75;;;17.96;83.59
18500;BME280;9379;52.134;11.576;2022-10-31T00:20:08;101259.16;;;18.15;83.55
18500;BME280;9379;52.134;11.576;2022-10-31T00:22:36;101252.47;;;18.19;83.00
18500;BME280;9379;52.134;11.576;2022-10-31T00:25:03;101251.72;;;18.50;81.96
18500;BME280;9379;52.134;11.576;2022-10-31T00:27:30;101256.13;;;18.34;82.74
18500;BME280;9379;52.134;11.576;2022-10-31T00:29:56;101253.94;;;18.38;82.44
18500;BME280;9379;52.134;11.576;2022-10-31T00:32:23;101267.41;;;17.97;83.42
18500;BME280;9379;52.134;11.576;2022-10-31T00:34:50;101274.13;;;18.26;82.48
18500;BME280;9379;52.134;11.576;2022-10-31T00:37:17;101276.16;;;18.07;83.49
18500;BME280;9379;52.134;11.576;2022-10-31T00:39:45;101249.91;;;18.26;82.56
18500;BME280;9379;52.134;11.576;2022-10-31T00:42:14;101272.28;;;18.26;82.17
18500;BME280;9379;52.134;11.576;2022-10-31T00:44:41;101272.78;;;18.54;81.60
18500;BME280;9379;52.134;11.576;2022-10-31T00:47:07;101272.78;;;18.46;81.24
18500;BME280;9379;52.134;11.576;2022-10-31T00:49:34;101279.69;;;18.32;81.66
18500;BME280;9379;52.134;11.576;2022-10-31T00:52:01;101278.16;;;18.46;81.52
18500;BME280;9379;52.134;11.576;2022-10-31T00:54:27;101278.81;;;18.40;81.42
18500;BME280;9379;52.134;11.576;2022-10-31T00:56:57;101282.22;;;18.34;81.53
18500;BME280;9379;52.134;11.576;2022-10-31T00:59:24;101282.53;;;18.47;81.47
18500;BME280;9379;52.134;11.576;2022-10-31T01:01:51;101290.44;;;18.41;81.71
18500;BME280;9379;52.134;11.576;2022-10-31T01:04:17;101290.28;;;18.42;81.60
18500;BME280;9379;52.134;11.576;2022-10-31T01:09:12;101295.31;;;18.37;82.08
18500;BME280;9379;52.134;11.576;2022-10-31T01:11:40;101297.34;;;18.35;81.65
18500;BME280;9379;52.134;11.576;2022-10-31T01:14:08;101295.66;;;18.26;81.91
18500;BME280;9379;52.134;11.576;2022-10-31T01:16:35;101287.41;;;18.03;82.89
18500;BME280;9379;52.134;11.576;2022-10-31T01:19:02;101279.59;;;17.67;83.88
18500;BME280;9379;52.134;11.576;2022-10-31T01:21:29;101294.63;;;17.78;83.97
18500;BME280;9379;52.134;11.576;2022-10-31T01:23:56;101295.66;;;18.01;83.27
18500;BME280;9379;52.134;11.576;2022-10-31T01:26:25;101298.31;;;17.77;83.77
18500;BME280;9379;52.134;11.576;2022-10-31T01:28:53;101280.09;;;17.63;84.41
18500;BME280;9379;52.134;11.576;2022-10-31T01:31:25;101286.94;;;17.41;85.22
18500;BME280;9379;52.134;11.576;2022-10-31T01:33:53;101299.88;;;17.03;86.85
18500;BME280;9379;52.134;11.576;2022-10-31T01:36:21;101302.41;;;17.05;87.62
18500;BME280;9379;52.134;11.576;2022-10-31T01:38:51;101278.47;;;16.85;87.20
18500;BME280;9379;52.134;11.576;2022-10-31T01:41:20;101293.66;;;16.77;87.06
18500;BME280;9379;52.134;11.576;2022-10-31T01:43:50;101287.53;;;16.67;88.14
18500;BME280;9379;52.134;11.576;2022-10-31T01:46:21;101299.84;;;16.51;89.52
18500;BME280;9379;52.134;11.576;2022-10-31T01:48:51;101308.56;;;15.92;90.40
18500;BME280;9379;52.134;11.576;2022-10-31T01:51:20;101305.78;;;15.66;91.39
18500;BME280;9379;52.134;11.576;2022-10-31T01:53:51;101315.06;;;15.71;92.00
18500;BME280;9379;52.134;11.576;2022-10-31T01:56:21;101315.31;;;15.78;92.00
18500;BME280;9379;52.134;11.576;2022-10-31T01:58:48;101317.75;;;16.25;90.34
18500;BME280;9379;52.134;11.576;2022-10-31T02:01:16;101316.28;;;16.30;89.21
18500;BME280;9379;52.134;11.576;2022-10-31T02:03:45;101314.56;;;16.21;90.42
18500;BME280;9379;52.134;11.576;2022-10-31T02:06:20;101324.72;;;16.18;90.52
18500;BME280;9379;52.134;11.576;2022-10-31T02:08:48;101320.53;;;16.33;89.49
18500;BME280;9379;52.134;11.576;2022-10-31T02:11:15;101321.88;;;15.84;90.52
18500;BME280;9379;52.134;11.576;2022-10-31T02:13:42;101319.06;;;16.03;90.17
18500;BME280;9379;52.134;11.576;2022-10-31T02:16:09;101307.25;;;15.96;90.55
18500;BME280;9379;52.134;11.576;2022-10-31T02:18:36;101324.47;;;15.48;91.56
18500;BME280;9379;52.134;11.576;2022-10-31T02:21:11;101325.31;;;15.21;93.12
18500;BME280;9379;52.134;11.576;2022-10-31T02:24:05;101322.16;;;15.35;92.19
18500;BME280;9379;52.134;11.576;2022-10-31T02:29:44;101324.06;;;15.98;90.46
18500;BME280;9379;52.134;11.576;2022-10-31T02:32:25;101325.66;;;16.09;89.38
18500;BME280;9379;52.134;11.576;2022-10-31T02:34:58;101322.81;;;15.92;90.04
18500;BME280;9379;52.134;11.576;2022-10-31T02:37:33;101327.50;;;15.90;89.04
18500;BME280;9379;52.134;11.576;2022-10-31T02:40:05;101327.03;;;15.95;90.16
18500;BME280;9379;52.134;11.576;2022-10-31T02:42:39;101331.22;;;15.97;89.61
18500;BME280;9379;52.134;11.576;2022-10-31T02:45:14;101335.53;;;16.08;88.74
18500;BME280;9379;52.134;11.576;2022-10-31T02:47:46;101332.56;;;16.11;88.10
18500;BME280;9379;52.134;11.576;2022-10-31T02:50:18;101335.84;;;16.23;87.52
18500;BME280;9379;52.134;11.576;2022-10-31T02:52:50;101342.22;;;16.22;86.61
18500;BME280;9379;52.134;11.576;2022-10-31T02:55:46;101343.59;;;16.26;86.16
18500;BME280;9379;52.134;11.576;2022-10-31T02:58:19;101348.19;;;16.16;87.45
18500;BME280;9379;52.134;11.576;2022-10-31T03:01:13;101358.13;;;16.05;87.10
18500;BME280;9379;52.134;11.576;2022-10-31T03:06:52;101358.38;;;16.12;87.31
18500;BME280;9379;52.134;11.576;2022-10-31T03:09:24;101351.25;;;16.39;85.46
18500;BME280;9379;52.134;11.576;2022-10-31T03:11:58;101369.66;;;16.33;85.85
18500;BME280;9379;52.134;11.576;2022-10-31T03:14:32;101374.28;;;15.96;87.63
18500;BME280;9379;52.134;11.576;2022-10-31T03:17:05;101374.72;;;15.73;89.80
18500;BME280;9379;52.134;11.576;2022-10-31T03:19:39;101350.41;;;15.47;90.38
18500;BME280;9379;52.134;11.576;2022-10-31T03:22:14;101350.72;;;15.17;91.47
18500;BME280;9379;52.134;11.576;2022-10-31T03:24:43;101387.28;;;15.36;91.82
18500;BME280;9379;52.134;11.576;2022-10-31T03:27:12;101387.44;;;15.34;92.56
18500;BME280;9379;52.134;11.576;2022-10-31T03:29:43;101391.13;;;15.24;92.37
18500;BME280;9379;52.134;11.576;2022-10-31T03:32:14;101395.31;;;14.89;93.66
18500;BME280;9379;52.134;11.576;2022-10-31T03:34:43;101401.50;;;14.99;93.58
18500;BME280;9379;52.134;11.576;2022-10-31T03:37:14;101375.50;;;14.72;94.17
18500;BME280;9379;52.134;11.576;2022-10-31T03:39:45;101393.66;;;15.25;92.22
18500;BME280;9379;52.134;11.576;2022-10-31T03:42:15;101386.47;;;15.26;92.29
18500;BME280;9379;52.134;11.576;2022-10-31T03:44:47;101394.91;;;15.31;92.07
18500;BME280;9379;52.134;11.576;2022-10-31T03:47:17;101396.13;;;15.46;91.75
18500;BME280;9379;52.134;11.576;2022-10-31T03:49:47;101398.97;;;16.17;89.63
18500;BME280;9379;52.134;11.576;2022-10-31T03:52:19;101405.13;;;16.27;88.50
18500;BME280;9379;52.134;11.576;2022-10-31T03:54:54;101400.06;;;16.60;86.95
18500;BME280;9379;52.134;11.576;2022-10-31T03:57:26;101387.09;;;16.55;86.61
18500;BME280;9379;52.134;11.576;2022-10-31T03:59:56;101396.78;;;16.48;87.25
18500;BME280;9379;52.134;11.576;2022-10-31T04:02:28;101395.22;;;16.63;86.24
18500;BME280;9379;52.134;11.576;2022-10-31T04:04:57;101403.19;;;16.91;86.19
18500;BME280;9379;52.134;11.576;2022-10-31T04:07:30;101393.38;;;16.82;87.14
18500;BME280;9379;52.134;11.576;2022-10-31T04:10:01;101403.03;;;16.92;86.95
18500;BME280;9379;52.134;11.576;2022-10-31T04:12:29;101395.47;;;16.70;87.80
18500;BME280;9379;52.134;11.576;2022-10-31T04:14:58;101404.81;;;16.84;87.21
18500;BME280;9379;52.134;11.576;2022-10-31T04:17:37;101405.81;;;16.83;87.75
18500;BME280;9379;52.134;11.576;2022-10-31T04:20:07;101408.34;;;16.49;88.89
18500;BME280;9379;52.134;11.576;2022-10-31T04:22:34;101411.72;;;16.15;90.20
18500;BME280;9379;52.134;11.576;2022-10-31T04:25:01;101389.88;;;16.10;90.95
18500;BME280;9379;52.134;11.576;2022-10-31T04:27:28;101399.34;;;15.87;91.56
18500;BME280;9379;52.134;11.576;2022-10-31T04:29:54;101408.66;;;16.10;91.00
18500;BME280;9379;52.134;11.576;2022-10-31T04:32:21;101412.19;;;15.83;91.95
18500;BME280;9379;52.134;11.576;2022-10-31T04:34:48;101417.91;;;15.24;93.95
18500;BME280;9379;52.134;11.576;2022-10-31T04:37:16;101405.31;;;15.43;93.46
18500;BME280;9379;52.134;11.576;2022-10-31T04:39:42;101419.94;;;15.39;93.72
18500;BME280;9379;52.134;11.576;2022-10-31T04:42:11;101423.25;;;15.70;91.96
18500;BME280;9379;52.134;11.576;2022-10-31T04:44:37;101421.84;;;15.94;92.28
18500;BME280;9379;52.134;11.576;2022-10-31T04:47:04;101394.03;;;15.77;92.18
18500;BME280;9379;52.134;11.576;2022-10-31T04:49:30;101422.13;;;16.00;92.78
18500;BME280;9379;52.134;11.576;2022-10-31T04:51:57;101417.75;;;16.17;91.78
18500;BME280;9379;52.134;11.576;2022-10-31T04:54:27;101419.16;;;16.21;89.93
18500;BME280;9379;52.134;11.576;2022-10-31T04:56:57;101431.19;;;16.35;89.87
18500;BME280;9379;52.134;11.576;2022-10-31T04:59:28;101436.09;;;16.40;89.27
18500;BME280;9379;52.134;11.576;2022-10-31T05:01:55;101443.16;;;15.95;91.24
18500;BME280;9379;52.134;11.576;2022-10-31T05:04:21;101426.53;;;15.92;91.39
18500;BME280;9379;52.134;11.576;2022-10-31T05:06:48;101427.47;;;16.00;92.00
18500;BME280;9379;52.134;11.576;2022-10-31T05:09:16;101439.25;;;16.35;91.59
18500;BME280;9379;52.134;11.576;2022-10-31T05:11:44;101429.72;;;16.41;90.37
18500;BME280;9379;52.134;11.576;2022-10-31T05:14:11;101435.78;;;16.43;89.42
18500;BME280;9379;52.134;11.576;2022-10-31T05:16:39;101439.22;;;16.53;89.27
18500;BME280;9379;52.134;11.576;2022-10-31T05:19:06;101441.16;;;16.43;89.31
18500;BME280;9379;52.134;11.576;2022-10-31T05:21:33;101434.66;;;16.45;90.25
18500;BME280;9379;52.134;11.576;2022-10-31T05:23:59;101424.91;;;16.44;91.39
18500;BME280;9379;52.134;11.576;2022-10-31T05:26:26;101408.97;;;16.25;91.48
18500;BME280;9379;52.134;11.576;2022-10-31T05:28:54;101425.38;;;15.94;93.87
18500;BME280;9379;52.134;11.576;2022-10-31T05:31:23;101434.53;;;16.01;93.65
18500;BME280;9379;52.134;11.576;2022-10-31T05:33:49;101425.22;;;16.23;91.33
18500;BME280;9379;52.134;11.576;2022-10-31T05:36:16;101432.59;;;15.94;94.22
18500;BME280;9379;52.134;11.576;2022-10-31T05:38:43;101427.66;;;15.62;95.52
18500;BME280;9379;52.134;11.576;2022-10-31T05:41:09;101425.00;;;15.89;94.16
18500;BME280;9379;52.134;11.576;2022-10-31T05:43:36;101428.88;;;15.30;96.24
18500;BME280;9379;52.134;11.576;2022-10-31T05:46:04;101432.81;;;15.73;94.75
18500;BME280;9379;52.134;11.576;2022-10-31T05:48:34;101430.22;;;15.54;95.59
18500;BME280;9379;52.134;11.576;2022-10-31T05:51:00;101428.63;;;15.14;96.60
18500;BME280;9379;52.134;11.576;2022-10-31T05:53:27;101443.81;;;15.33;96.28
18500;BME280;9379;52.134;11.576;2022-10-31T05:55:55;101450.81;;;15.06;96.80
18500;BME280;9379;52.134;11.576;2022-10-31T05:58:24;101455.41;;;15.14;96.67
18500;BME280;9379;52.134;11.576;2022-10-31T06:00:53;101454.19;;;15.55;94.72
18500;BME280;9379;52.134;11.576;2022-10-31T06:03:26;101442.19;;;15.50;95.77
18500;BME280;9379;52.134;11.576;2022-10-31T06:05:54;101459.28;;;14.82;97.77
18500;BME280;9379;52.134;11.576;2022-10-31T06:08:24;101460.53;;;14.88;99.26
18500;BME280;9379;52.134;11.576;2022-10-31T06:10:50;101434.59;;;15.08;98.57
18500;BME280;9379;52.134;11.576;2022-10-31T06:13:21;101451.59;;;15.73;95.78
18500;BME280;9379;52.134;11.576;2022-10-31T06:15:49;101455.03;;;15.93;93.98
18500;BME280;9379;52.134;11.576;2022-10-31T06:18:16;101454.63;;;16.15;93.67
18500;BME280;9379;52.134;11.576;2022-10-31T06:20:44;101458.25;;;15.96;95.25
18500;BME280;9379;52.134;11.576;2022-10-31T06:23:11;101455.09;;;15.73;97.04
18500;BME280;9379;52.134;11.576;2022-10-31T06:25:37;101454.69;;;15.78;97.99
18500;BME280;9379;52.134;11.576;2022-10-31T06:28:04;101462.31;;;15.73;97.73
18500;BME280;9379;52.134;11.576;2022-10-31T06:30:31;101456.94;;;15.73;98.22
18500;BME280;9379;52.134;11.576;2022-10-31T06:33:01;101452.72;;;15.70;98.71
18500;BME280;9379;52.134;11.576;2022-10-31T06:35:28;101474.09;;;15.53;99.88
18500;BME280;9379;52.134;11.576;2022-10-31T06:37:56;101458.84;;;15.90;98.66
18500;BME280;9379;52.134;11.576;2022-10-31T06:40:23;101473.50;;;15.96;98.36
18500;BME280;9379;52.134;11.576;2022-10-31T06:42:58;101486.84;;;15.78;99.78
18500;BME280;9379;52.134;11.576;2022-10-31T06:45:25;101496.69;;;16.15;99.23
18500;BME280;9379;52.134;11.576;2022-10-31T06:47:54;101489.19;;;15.91;100.00
18500;BME280;9379;52.134;11.576;2022-10-31T06:50:22;101513.09;;;16.12;100.00
18500;BME280;9379;52.134;11.576;2022-10-31T06:52:52;101499.94;;;16.36;99.84
18500;BME280;9379;52.134;11.576;2022-10-31T06:55:24;101505.63;;;16.51;99.49
18500;BME280;9379;52.134;11.576;2022-10-31T06:57:55;101502.47;;;16.83;97.75
18500;BME280;9379;52.134;11.576;2022-10-31T07:00:24;101503.00;;;16.86;100.00
18500;BME280;9379;52.134;11.576;2022-10-31T07:02:57;101517.19;;;16.97;100.00
18500;BME280;9379;52.134;11.576;2022-10-31T07:05:25;101511.72;;;16.88;100.00
18500;BME280;9379;52.134;11.576;2022-10-31T07:07:59;101517.06;;;16.80;100.00
18500;BME280;9379;52.134;11.576;2022-10-31T07:10:29;101520.91;;;17.21;100.00
18500;BME280;9379;52.134;11.576;2022-10-31T07:12:57;101520.03;;;16.77;100.00
18500;BME280;9379;52.134;11.576;2022-10-31T07:15:24;101514.75;;;17.03;100.00
18500;BME280;9379;52.134;11.576;2022-10-31T07:17:50;101529.22;;;17.10;100.00
18500;BME280;9379;52.134;11.576;2022-10-31T07:20:22;101522.25;;;17.43;100.00
18500;BME280;9379;52.134;11.576;2022-10-31T07:22:50;101525.69;;;17.28;100.00
18500;BME280;9379;52.134;11.576;2022-10-31T07:25:17;101527.94;;;17.14;100.00
18500;BME280;9379;52.134;11.576;2022-10-31T07:27:45;101527.88;;;17.32;100.00
18500;BME280;9379;52.134;11.576;2022-10-31T07:30:14;101530.13;;;17.19;100.00
18500;BME280;9379;52.134;11.576;2022-10-31T07:32:47;101529.34;;;17.70;100.00
18500;BME280;9379;52.134;11.576;2022-10-31T07:35:16;101527.66;;;17.69;100.00
18500;BME280;9379;52.134;11.576;2022-10-31T07:37:45;101538.81;;;17.83;100.00
18500;BME280;9379;52.134;11.576;2022-10-31T07:40:13;101531.97;;;17.88;100.00
18500;BME280;9379;52.134;11.576;2022-10-31T07:42:43;101535.44;;;18.06;99.50
18500;BME280;9379;52.134;11.576;2022-10-31T07:45:17;101539.44;;;18.02;100.00
18500;BME280;9379;52.134;11.576;2022-10-31T07:47:46;101534.34;;;17.91;100.00
18500;BME280;9379;52.134;11.576;2022-10-31T07:50:14;101527.75;;;17.86;100.00
18500;BME280;9379;52.134;11.576;2022-10-31T07:52:41;101514.84;;;17.63;100.00
18500;BME280;9379;52.134;11.576;2022-10-31T07:55:16;101534.31;;;17.83;100.00
18500;BME280;9379;52.134;11.576;2022-10-31T07:57:43;101526.44;;;17.90;100.00
18500;BME280;9379;52.134;11.576;2022-10-31T08:00:13;101527.94;;;17.84;100.00
18500;BME280;9379;52.134;11.576;2022-10-31T08:02:42;101527.00;;;18.01;100.00
18500;BME280;9379;52.134;11.576;2022-10-31T08:05:10;101539.81;;;18.16;100.00
18500;BME280;9379;52.134;11.576;2022-10-31T08:07:38;101547.31;;;18.30;99.25
18500;BME280;9379;52.134;11.576;2022-10-31T08:10:13;101534.81;;;18.29;99.29
18500;BME280;9379;52.134;11.576;2022-10-31T08:12:42;101540.44;;;18.44;98.66
18500;BME280;9379;52.134;11.576;2022-10-31T08:15:11;101540.63;;;18.42;99.19
18500;BME280;9379;52.134;11.576;2022-10-31T08:17:39;101519.84;;;18.18;99.61
18500;BME280;9379;52.134;11.576;2022-10-31T08:20:12;101534.25;;;18.09;100.00
18500;BME280;9379;52.134;11.576;2022-10-31T08:22:39;101537.63;;;18.11;100.00
18500;BME280;9379;52.134;11.576;2022-10-31T08:25:06;101513.81;;;17.64;100.00
18500;BME280;9379;52.134;11.576;2022-10-31T08:27:38;101533.59;;;18.15;100.00
18500;BME280;9379;52.134;11.576;2022-10-31T08:30:08;101532.50;;;18.34;99.99
18500;BME280;9379;52.134;11.576;2022-10-31T08:32:35;101524.47;;;18.42;99.87
18500;BME280;9379;52.134;11.576;2022-10-31T08:35:02;101527.84;;;18.44;99.99
18500;BME280;9379;52.134;11.576;2022-10-31T08:37:31;101535.19;;;18.34;100.00
18500;BME280;9379;52.134;11.576;2022-10-31T08:40:00;101533.59;;;18.07;100.00
18500;BME280;9379;52.134;11.576;2022-10-31T08:42:33;101514.84;;;18.31;100.00
18500;BME280;9379;52.134;11.576;2022-10-31T08:45:00;101519.00;;;18.18;100.00
18500;BME280;9379;52.134;11.576;2022-10-31T08:47:27;101519.22;;;18.32;100.00
18500;BME280;9379;52.134;11.576;2022-10-31T08:49:58;101518.25;;;18.42;100.00
18500;BME280;9379;52.134;11.576;2022-10-31T08:52:32;101520.22;;;18.40;100.00
18500;BME280;9379;52.134;11.576;2022-10-31T08:55:02;101515.50;;;18.33;100.00
18500;BME280;9379;52.134;11.576;2022-10-31T08:57:30;101494.44;;;18.21;100.00
18500;BME280;9379;52.134;11.576;2022-10-31T09:00:00;101513.84;;;18.41;100.00
18500;BME280;9379;52.134;11.576;2022-10-31T09:02:27;101513.38;;;18.45;100.00
18500;BME280;9379;52.134;11.576;2022-10-31T09:04:55;101504.84;;;18.16;100.00
18500;BME280;9379;52.134;11.576;2022-10-31T09:07:22;101522.16;;;18.13;100.00
18500;BME280;9379;52.134;11.576;2022-10-31T09:09:50;101516.66;;;18.23;100.00
18500;BME280;9379;52.134;11.576;2022-10-31T09:12:17;101516.53;;;18.32;100.00
18500;BME280;9379;52.134;11.576;2022-10-31T09:14:46;101514.00;;;18.31;100.00
18500;BME280;9379;52.134;11.576;2022-10-31T09:17:13;101521.31;;;18.13;100.00
18500;BME280;9379;52.134;11.576;2022-10-31T09:19:43;101504.31;;;18.54;100.00
18500;BME280;9379;52.134;11.576;2022-10-31T09:22:12;101489.53;;;18.08;100.00
18500;BME280;9379;52.134;11.576;2022-10-31T09:24:41;101506.47;;;18.51;100.00
18500;BME280;9379;52.134;11.576;2022-10-31T09:27:09;101511.03;;;18.58;100.00
18500;BME280;9379;52.134;11.576;2022-10-31T09:29:38;101517.41;;;18.41;100.00
18500;BME280;9379;52.134;11.576;2022-10-31T09:32:06;101514.97;;;18.64;99.72
18500;BME280;9379;52.134;11.576;2022-10-31T09:34:34;101519.94;;;18.43;100.00
18500;BME280;9379;52.134;11.576;2022-10-31T09:37:01;101510.69;;;18.53;100.00
18500;BME280;9379;52.134;11.576;2022-10-31T09:39:31;101491.28;;;18.33;100.00
18500;BME280;9379;52.134;11.576;2022-10-31T09:42:15;101507.59;;;18.32;100.00
18500;BME280;9379;52.134;11.576;2022-10-31T09:44:53;101504.75;;;17.91;100.00
18500;BME280;9379;52.134;11.576;2022-10-31T09:47:37;101507.22;;;17.76;100.00
18500;BME280;9379;52.134;11.576;2022-10-31T09:50:13;101519.03;;;17.92;100.00
18500;BME280;9379;52.134;11.576;2022-10-31T09:52:47;101519.97;;;18.17;100.00
18500;BME280;9379;52.134;11.576;2022-10-31T09:55:20;101510.38;;;18.06;100.00
18500;BME280;9379;52.134;11.576;2022-10-31T09:57:54;101517.91;;;18.45;100.00
18500;BME280;9379;52.134;11.576;2022-10-31T10:00:22;101514.41;;;18.52;100.00
18500;BME280;9379;52.134;11.576;2022-10-31T10:03:10;101511.75;;;18.69;100.00
18500;BME280;9379;52.134;11.576;2022-10-31T10:05:46;101510.47;;;18.30;100.00
18500;BME280;9379;52.134;11.576;2022-10-31T10:08:20;101513.22;;;18.55;100.00
18500;BME280;9379;52.134;11.576;2022-10-31T10:10:50;101503.53;;;18.28;100.00
18500;BME280;9379;52.134;11.576;2022-10-31T10:13:35;101513.28;;;18.71;100.00
18500;BME280;9379;52.134;11.576;2022-10-31T10:16:20;101522.53;;;18.69;100.00
18500;BME280;9379;52.134;11.576;2022-10-31T10:19:11;101508.50;;;18.57;100.00
18500;BME280;9379;52.134;11.576;2022-10-31T10:21:47;101529.13;;;18.90;98.85
18500;BME280;9379;52.134;11.576;2022-10-31T10:24:23;101517.19;;;19.01;97.65
18500;BME280;9379;52.134;11.576;2022-10-31T10:26:59;101500.81;;;18.86;98.11
18500;BME280;9379;52.134;11.576;2022-10-31T10:29:34;101513.22;;;18.55;100.00
18500;BME280;9379;52.134;11.576;2022-10-31T10:32:10;101503.03;;;18.24;100.00
18500;BME280;9379;52.134;11.576;2022-10-31T10:34:44;101513.16;;;18.38;100.00
18500;BME280;9379;52.134;11.576;2022-10-31T10:37:23;101508.16;;;18.60;100.00
18500;BME280;9379;52.134;11.576;2022-10-31T10:39:55;101512.88;;;18.58;100.00
18500;BME280;9379;52.134;11.576;2022-10-31T10:42:25;101512.00;;;18.49;100.00
18500;BME280;9379;52.134;11.576;2022-10-31T10:45:16;101506.53;;;18.75;100.00
18500;BME280;9379;52.134;11.576;2022-10-31T10:48:06;101519.31;;;18.73;100.00
18500;BME280;9379;52.134;11.576;2022-10-31T10:50:39;101510.09;;;18.76;100.00
18500;BME280;9379;52.134;11.576;2022-10-31T10:53:17;101492.28;;;18.24;100.00
18500;BME280;9379;52.134;11.576;2022-10-31T10:56:02;101498.63;;;18.65;100.00
18500;BME280;9379;52.134;11.576;2022-10-31T10:58:32;101505.72;;;18.83;100.00
18500;BME280;9379;52.134;11.576;2022-10-31T11:01:10;101484.63;;;18.54;100.00
18500;BME280;9379;52.134;11.576;2022-10-31T11:03:37;101499.31;;;18.68;100.00
18500;BME280;9379;52.134;11.576;2022-10-31T11:06:16;101498.31;;;18.26;100.00
18500;BME280;9379;52.134;11.576;2022-10-31T11:08:47;101499.38;;;18.33;100.00
18500;BME280;9379;52.134;11.576;2022-10-31T11:11:23;101484.94;;;18.43;100.00
18500;BME280;9379;52.134;11.576;2022-10-31T11:14:01;101486.91;;;18.32;100.00
18500;BME280;9379;52.134;11.576;2022-10-31T11:16:33;101484.94;;;18.51;100.00
18500;BME280;9379;52.134;11.576;2022-10-31T11:19:15;101479.53;;;18.34;100.00
18500;BME280;9379;52.134;11.576;2022-10-31T11:21:43;101467.50;;;18.71;100.00
18500;BME280;9379;52.134;11.576;2022-10-31T11:24:15;101473.22;;;18.76;100.00
18500;BME280;9379;52.134;11.576;2022-10-31T11:26:46;101465.25;;;18.58;100.00
18500;BME280;9379;52.134;11.576;2022-10-31T11:29:19;101465.81;;;18.86;100.00
18500;BME280;9379;52.134;11.576;2022-10-31T11:31:52;101464.47;;;18.90;100.00
18500;BME280;9379;52.134;11.576;2022-10-31T11:34:30;101460.38;;;18.62;100.00
18500;BME280;9379;52.134;11.576;2022-10-31T11:37:03;101456.31;;;18.50;100.00
18500;BME280;9379;52.134;11.576;2022-10-31T11:39:31;101458.41;;;18.64;100.00
18500;BME280;9379;52.134;11.576;2022-10-31T11:42:00;101460.94;;;18.82;100.00
18500;BME280;9379;52.134;11.576;2022-10-31T11:44:29;101461.66;;;18.25;100.00
18500;BME280;9379;52.134;11.576;2022-10-31T11:47:01;101465.72;;;18.29;100.00
18500;BME280;9379;52.134;11.576;2022-10-31T11:49:30;101454.56;;;18.16;100.00
18500;BME280;9379;52.134;11.576;2022-10-31T11:52:04;101449.53;;;18.13;100.00
18500;BME280;9379;52.134;11.576;2022-10-31T11:54:34;101456.50;;;18.48;100.00
18500;BME280;9379;52.134;11.576;2022-10-31T11:57:07;101448.31;;;18.90;100.00
18500;BME280;9379;52.134;11.576;2022-10-31T11:59:50;101458.25;;;18.82;100.00
18500;BME280;9379;52.134;11.576;2022-10-31T12:02:26;101450.66;;;18.93;100.00
18500;BME280;9379;52.134;11.576;2022-10-31T12:05:02;101450.31;;;18.97;98.98
18500;BME280;9379;52.134;11.576;2022-10-31T12:07:31;101452.53;;;19.01;98.96
18500;BME280;9379;52.134;11.576;2022-10-31T12:09:57;101447.28;;;18.75;100.00
18500;BME280;9379;52.134;11.576;2022-10-31T12:12:39;101449.22;;;18.41;100.00
18500;BME280;9379;52.134;11.576;2022-10-31T12:15:27;101444.13;;;18.88;100.00
18500;BME280;9379;52.134;11.576;2022-10-31T12:21:15;101436.50;;;18.75;100.00
18500;BME280;9379;52.134;11.576;2022-10-31T12:23:57;101430.44;;;18.57;100.00
18500;BME280;9379;52.134;11.576;2022-10-31T12:26:39;101435.69;;;18.83;100.00
18500;BME280;9379;52.134;11.576;2022-10-31T12:29:23;101422.34;;;19.06;100.00
18500;BME280;9379;52.134;11.576;2022-10-31T13:15:50;101359.56;;;18.24;100.00
18500;BME280;9379;52.134;11.576;2022-10-31T13:18:27;101387.50;;;18.63;100.00
18500;BME280;9379;52.134;11.576;2022-10-31T13:20:57;101348.50;;;18.43;100.00
18500;BME280;9379;52.134;11.576;2022-10-31T16:48:04;101259.78;;;17.68;100.00
18500;BME280;9379;52.134;11.576;2022-10-31T16:50:31;101255.63;;;17.82;100.00
18500;BME280;9379;52.134;11.576;2022-10-31T16:52:58;101239.34;;;18.00;100.00
18500;BME280;9379;52.134;11.576;2022-10-31T16:55:25;101242.88;;;17.84;100.00
18500;BME280;9379;52.134;11.576;2022-10-31T16:57:53;101250.84;;;17.52;100.00
18500;BME280;9379;52.134;11.576;2022-10-31T17:00:22;101223.22;;;17.17;100.00
18500;BME280;9379;52.134;11.576;2022-10-31T17:02:51;101242.94;;;17.58;100.00
18500;BME280;9379;52.134;11.576;2022-10-31T17:05:21;101237.47;;;17.92;100.00
18500;BME280;9379;52.134;11.576;2022-10-31T17:07:57;101224.03;;;17.92;100.00
18500;BME280;9379;52.134;11.576;2022-10-31T17:10:25;101228.59;;;18.00;100.00
18500;BME280;9379;52.134;11.576;2022-10-31T17:12:53;101226.41;;;17.87;100.00
18500;BME280;9379;52.134;11.576;2022-10-31T17:15:23;101237.81;;;17.73;100.00
18500;BME280;9379;52.134;11.576;2022-10-31T17:17:54;101230.34;;;17.59;100.00
18500;BME280;9379;52.134;11.576;2022-10-31T17:20:25;101237.09;;;17.63;100.00
18500;BME280;9379;52.134;11.576;2022-10-31T17:23:00;101238.13;;;17.11;100.00